Time;durP1;ratioP1;P1;durP2;ratioP2;P2;SDS_P1;SDS_P2;PMS_P1;PMS_P2;Temp;Humidity;BMP_temperature;BMP_pressure;BME280_temperature;BME280_humidity;BME280_pressure;Samples;Min_cycle;Max_cycle;Signal;HPM_P1;HPM_P2
2023/03/26 00:01:35;;;;;;;;;;;;;;;16.25;51.69;99908.16;4998081;28;1191;-42
2023/03/26 00:04:01;;;;;;;;;;;;;;;15.81;52.84;99906.44;4997532;28;1215;-43
2023/03/26 00:06:31;;;;;;;;;;;;;;;15.56;53.45;99919.28;4997754;28;1109;-44
2023/03/26 00:08:57;;;;;;;;;;;;;;;15.44;53.25;99921.56;4998186;28;1168;-42
2023/03/26 00:11:23;;;;;;;;;;;;;;;16.64;51.20;99925.53;4998017;28;1068;-43
2023/03/26 00:13:48;;;;;;;;;;;;;;;16.65;50.74;99928.00;4997838;28;1172;-41
2023/03/26 00:16:15;;;;;;;;;;;;;;;15.95;52.64;99934.84;4997452;28;1128;-43
2023/03/26 00:18:41;;;;;;;;;;;;;;;15.71;53.15;99927.34;4997616;28;1898;-45
2023/03/26 00:21:07;;;;;;;;;;;;;;;15.52;53.20;99929.16;4997780;28;1192;-45
2023/03/26 00:23:34;;;;;;;;;;;;;;;15.53;53.60;99936.28;4997555;28;1095;-46
2023/03/26 00:26:00;;;;;;;;;;;;;;;17.08;50.06;99941.69;4997750;28;1195;-44
2023/03/26 00:28:26;;;;;;;;;;;;;;;16.36;51.39;99933.56;4997157;28;1028;-44
2023/03/26 00:31:02;;;;;;;;;;;;;;;15.88;52.69;99942.59;4997636;28;1167;-45
2023/03/26 00:33:27;;;;;;;;;;;;;;;15.62;53.11;99940.03;5029125;28;1112;-42
2023/03/26 00:35:53;;;;;;;;;;;;;;;15.53;53.41;99945.31;4997131;28;1072;-43
2023/03/26 00:38:21;;;;;;;;;;;;;;;17.03;49.99;99939.03;4996850;28;1898;-42
2023/03/26 00:40:49;;;;;;;;;;;;;;;16.45;51.60;99944.69;4996116;28;1536;-43
2023/03/26 00:43:18;;;;;;;;;;;;;;;15.90;52.82;99943.09;4997490;28;1064;-42
2023/03/26 00:45:45;;;;;;;;;;;;;;;15.69;53.08;99943.25;4996003;28;1348;-43
2023/03/26 00:48:11;;;;;;;;;;;;;;;15.48;53.27;99950.84;4983406;28;1132;-44
2023/03/26 00:50:37;;;;;;;;;;;;;;;15.43;53.11;99953.63;4989618;28;1333;-44
2023/03/26 00:53:02;;;;;;;;;;;;;;;16.32;51.84;99944.28;4986964;28;1053;-46
2023/03/26 00:55:28;;;;;;;;;;;;;;;17.31;49.31;99950.16;4989453;28;1191;-45
2023/03/26 00:57:54;;;;;;;;;;;;;;;16.24;51.79;99956.75;4996784;28;1899;-45
2023/03/26 01:00:19;;;;;;;;;;;;;;;15.88;52.82;99965.31;4996707;28;1249;-43
2023/03/26 01:02:45;;;;;;;;;;;;;;;15.64;53.03;99967.97;4997229;28;1068;-43
2023/03/26 01:05:41;;;;;;;;;;;;;;;15.52;53.29;99970.28;4996632;28;1160;-44
2023/03/26 01:08:16;;;;;;;;;;;;;;;16.89;50.68;99965.59;4986426;28;1050;-45
2023/03/26 01:10:42;;;;;;;;;;;;;;;16.36;51.69;99964.56;4996613;28;1137;-44
2023/03/26 01:13:07;;;;;;;;;;;;;;;15.85;52.82;99962.31;5011901;28;1210;-49
2023/03/26 01:15:36;;;;;;;;;;;;;;;15.58;53.41;99966.38;4995347;28;1081;-42
2023/03/26 01:18:03;;;;;;;;;;;;;;;15.46;53.45;99953.06;5017199;28;1906;-44
2023/03/26 01:20:29;;;;;;;;;;;;;;;16.17;52.21;99945.31;4994086;28;1025;-44
2023/03/26 01:22:57;;;;;;;;;;;;;;;16.81;50.42;99949.75;4996623;28;1131;-42
2023/03/26 01:25:22;;;;;;;;;;;;;;;16.00;52.45;99955.88;5028170;28;1131;-45
2023/03/26 01:27:48;;;;;;;;;;;;;;;15.72;52.95;99953.66;5011837;28;1326;-45
2023/03/26 01:30:20;;;;;;;;;;;;;;;15.53;53.25;99963.69;4995819;28;1017;-41
2023/03/26 01:32:52;;;;;;;;;;;;;;;15.37;53.74;99963.78;4995324;28;1045;-43
2023/03/26 01:35:28;;;;;;;;;;;;;;;16.87;50.71;99967.78;5027420;28;1116;-46
2023/03/26 01:38:16;;;;;;;;;;;;;;;16.47;51.16;99958.97;5028107;28;1962;-46
2023/03/26 01:40:51;;;;;;;;;;;;;;;15.86;52.67;99961.22;4994369;28;1230;-48
2023/03/26 01:43:28;;;;;;;;;;;;;;;15.60;53.36;99960.59;4995160;28;1046;-45
2023/03/26 01:45:54;;;;;;;;;;;;;;;15.48;53.16;99964.53;4996245;28;1211;-44
2023/03/26 01:48:20;;;;;;;;;;;;;;;15.26;53.51;99951.25;4998629;28;1131;-44
2023/03/26 01:50:47;;;;;;;;;;;;;;;16.67;51.28;99955.94;4982689;28;1169;-45
2023/03/26 01:53:13;;;;;;;;;;;;;;;16.72;50.82;99953.16;4999211;28;1653;-45
2023/03/26 01:55:48;;;;;;;;;;;;;;;15.97;52.65;99949.06;4988809;28;1103;-43
2023/03/26 01:58:29;;;;;;;;;;;;;;;15.64;53.05;99957.03;4999108;28;1965;-48
2023/03/26 02:01:15;;;;;;;;;;;;;;;15.49;53.26;99957.16;4998483;28;1036;-41
2023/03/26 02:03:52;;;;;;;;;;;;;;;15.39;53.73;99956.13;5020823;28;1266;-44
2023/03/26 02:06:18;;;;;;;;;;;;;;;17.00;50.26;99956.09;5014790;28;934;-45
2023/03/26 02:08:45;;;;;;;;;;;;;;;16.38;51.56;99956.88;5000403;28;1099;-44
2023/03/26 02:11:11;;;;;;;;;;;;;;;15.87;52.65;99958.19;4998744;28;1553;-46
2023/03/26 02:13:40;;;;;;;;;;;;;;;15.59;53.22;99948.84;4999325;28;1558;-44
2023/03/26 02:16:07;;;;;;;;;;;;;;;15.45;53.37;99945.13;5000530;28;1126;-44
2023/03/26 02:18:37;;;;;;;;;;;;;;;15.32;53.67;99958.38;4999749;28;1958;-45
2023/03/26 02:21:05;;;;;;;;;;;;;;;16.57;51.26;99959.63;4996937;28;1056;-48
2023/03/26 02:23:34;;;;;;;;;;;;;;;16.59;50.88;99951.94;4995371;28;1009;-44
2023/03/26 02:26:09;;;;;;;;;;;;;;;15.84;52.78;99957.97;4998799;28;1427;-47
2023/03/26 02:28:45;;;;;;;;;;;;;;;15.57;53.45;99959.25;4997878;28;1231;-45
2023/03/26 02:31:14;;;;;;;;;;;;;;;15.43;53.45;99958.28;4998622;28;1283;-45
2023/03/26 02:33:40;;;;;;;;;;;;;;;16.31;52.10;99950.88;5022191;28;1087;-46
2023/03/26 02:36:07;;;;;;;;;;;;;;;16.90;50.38;99937.00;4998340;28;1135;-45
2023/03/26 02:38:33;;;;;;;;;;;;;;;16.01;52.62;99939.16;5030824;28;1975;-43
2023/03/26 02:41:01;;;;;;;;;;;;;;;15.70;53.04;99925.72;4997694;28;1282;-42
2023/03/26 02:43:35;;;;;;;;;;;;;;;15.47;53.57;99937.41;4998339;28;1044;-45
2023/03/26 02:46:03;;;;;;;;;;;;;;;15.40;53.61;99944.06;4997973;28;1154;-44
2023/03/26 02:48:48;;;;;;;;;;;;;;;16.57;51.26;99945.09;4999785;28;1172;-43
2023/03/26 02:51:20;;;;;;;;;;;;;;;16.67;50.64;99947.72;4997803;28;1151;-42
2023/03/26 02:54:00;;;;;;;;;;;;;;;15.90;52.60;99945.84;4998087;28;1354;-43
2023/03/26 02:56:44;;;;;;;;;;;;;;;15.64;53.08;99948.78;4987973;28;1062;-44
2023/03/26 02:59:21;;;;;;;;;;;;;;;15.42;53.60;99946.50;5030834;28;1969;-40
2023/03/26 03:02:03;;;;;;;;;;;;;;;15.44;53.68;99948.97;4997326;28;1221;-49
2023/03/26 03:04:31;;;;;;;;;;;;;;;16.97;50.16;99955.88;4997955;28;1363;-43
2023/03/26 03:06:58;;;;;;;;;;;;;;;16.36;51.52;99958.25;4997532;28;1135;-45
2023/03/26 03:09:24;;;;;;;;;;;;;;;15.83;53.03;99957.13;4997897;28;1267;-49
2023/03/26 03:12:08;;;;;;;;;;;;;;;15.57;53.51;99959.25;4998536;28;1169;-47
2023/03/26 03:14:34;;;;;;;;;;;;;;;15.42;53.64;99967.59;4997677;28;1885;-46
2023/03/26 03:16:59;;;;;;;;;;;;;;;16.56;51.57;99959.94;4999127;28;1157;-46
2023/03/26 03:19:25;;;;;;;;;;;;;;;16.85;50.17;99970.00;4997583;28;1906;-43
2023/03/26 03:21:51;;;;;;;;;;;;;;;16.03;52.32;99971.75;4997420;28;1131;-44
2023/03/26 03:24:17;;;;;;;;;;;;;;;15.74;53.17;99967.06;4998907;28;1052;-44
2023/03/26 03:26:46;;;;;;;;;;;;;;;15.55;53.37;99977.91;4997248;28;1282;-41
2023/03/26 03:29:32;;;;;;;;;;;;;;;15.36;53.64;99973.13;4998257;28;1082;-44
2023/03/26 03:32:10;;;;;;;;;;;;;;;16.77;50.99;99977.78;4997413;28;1054;-44
2023/03/26 03:34:42;;;;;;;;;;;;;;;16.50;51.34;99974.84;5030217;28;1150;-46
2023/03/26 03:37:07;;;;;;;;;;;;;;;15.85;52.87;99976.88;4998701;28;1111;-47
2023/03/26 03:39:48;;;;;;;;;;;;;;;15.59;53.49;99978.97;4997424;28;1909;-42
2023/03/26 03:42:19;;;;;;;;;;;;;;;15.42;53.53;99976.66;4996935;28;1292;-46
2023/03/26 03:44:46;;;;;;;;;;;;;;;15.34;53.53;99988.19;4997393;28;1212;-45
2023/03/26 03:47:32;;;;;;;;;;;;;;;16.67;51.07;99994.38;4998488;28;1136;-44
2023/03/26 03:49:59;;;;;;;;;;;;;;;16.65;51.14;99999.34;4996994;28;1173;-44
2023/03/26 03:52:26;;;;;;;;;;;;;;;15.96;52.86;100007.72;4997111;28;1228;-46
2023/03/26 03:54:51;;;;;;;;;;;;;;;15.69;53.15;100000.81;4993500;28;1348;-47
2023/03/26 03:57:32;;;;;;;;;;;;;;;15.52;53.76;99998.47;5010081;28;1177;-44
2023/03/26 04:00:01;;;;;;;;;;;;;;;15.39;53.58;99996.41;4997190;28;1907;-45
2023/03/26 04:02:41;;;;;;;;;;;;;;;16.68;51.42;99995.22;4997690;28;1069;-47
2023/03/26 04:05:10;;;;;;;;;;;;;;;16.62;51.23;100013.69;4996511;28;1226;-46
2023/03/26 04:07:40;;;;;;;;;;;;;;;15.91;52.76;100013.28;5015847;28;1238;-46
2023/03/26 04:10:06;;;;;;;;;;;;;;;15.69;53.36;100002.75;4997267;28;1132;-46
2023/03/26 04:12:50;;;;;;;;;;;;;;;15.50;53.58;100008.06;4997934;28;867;-47
2023/03/26 04:15:18;;;;;;;;;;;;;;;15.58;53.94;99999.25;4996304;28;1148;-48
2023/03/26 04:17:46;;;;;;;;;;;;;;;17.10;50.33;99999.91;4996469;28;1343;-45
2023/03/26 04:20:15;;;;;;;;;;;;;;;16.24;51.93;99992.41;4996025;28;1992;-45
2023/03/26 04:22:42;;;;;;;;;;;;;;;15.83;53.12;100006.47;5029347;28;1156;-47
2023/03/26 04:25:10;;;;;;;;;;;;;;;15.66;53.34;99995.91;4996082;28;1216;-47
2023/03/26 04:27:57;;;;;;;;;;;;;;;15.42;53.96;100000.47;4996350;28;1304;-46
2023/03/26 04:30:52;;;;;;;;;;;;;;;17.04;50.37;100001.09;4995232;28;1171;-44
2023/03/26 04:33:30;;;;;;;;;;;;;;;16.38;51.70;100019.13;4996211;28;1199;-47
2023/03/26 04:36:00;;;;;;;;;;;;;;;15.94;52.92;100026.41;5012066;28;1276;-42
2023/03/26 04:38:27;;;;;;;;;;;;;;;15.71;53.29;100020.53;5011634;28;1910;-45
2023/03/26 04:40:53;;;;;;;;;;;;;;;15.49;53.72;100026.44;4979940;28;1329;-41
2023/03/26 04:43:41;;;;;;;;;;;;;;;15.36;53.84;100024.34;5012626;28;885;-45
2023/03/26 04:46:23;;;;;;;;;;;;;;;15.67;53.53;100046.88;4995943;28;1259;-43
2023/03/26 04:49:00;;;;;;;;;;;;;;;17.01;50.17;100034.66;5028699;28;1329;-46
2023/03/26 04:51:27;;;;;;;;;;;;;;;16.03;52.58;100045.81;4996049;28;1361;-45
2023/03/26 04:53:57;;;;;;;;;;;;;;;15.69;53.60;100052.06;5028028;28;1159;-41
2023/03/26 04:56:39;;;;;;;;;;;;;;;15.48;53.69;100048.66;4995716;28;1107;-47
2023/03/26 04:59:29;;;;;;;;;;;;;;;15.30;54.23;100042.72;5022420;28;1971;-42
2023/03/26 05:01:56;;;;;;;;;;;;;;;16.78;50.99;100033.50;4996903;28;1088;-45
2023/03/26 05:04:25;;;;;;;;;;;;;;;16.59;51.38;100044.44;4995744;28;1366;-42
2023/03/26 05:06:51;;;;;;;;;;;;;;;15.91;52.85;100047.00;4995292;28;1155;-42
2023/03/26 05:09:33;;;;;;;;;;;;;;;15.79;53.79;100053.94;4995667;28;1388;-43
2023/03/26 05:12:15;;;;;;;;;;;;;;;16.13;52.55;100036.66;5010049;28;1120;-44
2023/03/26 05:14:55;;;;;;;;;;;;;;;15.55;52.10;100046.41;4995882;28;1203;-47
2023/03/26 05:17:40;;;;;;;;;;;;;;;16.47;52.27;100041.28;4994946;28;1196;-46
2023/03/26 05:20:22;;;;;;;;;;;;;;;15.77;52.13;100053.38;4996518;28;1914;-46
2023/03/26 05:22:47;;;;;;;;;;;;;;;16.40;52.60;100063.56;4995832;28;1251;-43
2023/03/26 05:25:19;;;;;;;;;;;;;;;16.37;51.92;100069.66;5010770;28;2007;-45
2023/03/26 05:27:45;;;;;;;;;;;;;;;16.67;52.11;100068.50;4995326;28;1114;-47
2023/03/26 05:30:12;;;;;;;;;;;;;;;17.98;49.28;100075.59;4996502;28;1044;-49
2023/03/26 05:32:42;;;;;;;;;;;;;;;16.59;51.08;100078.19;5011548;28;1403;-43
2023/03/26 05:35:08;;;;;;;;;;;;;;;16.11;50.09;100078.09;4995238;28;1114;-46
2023/03/26 05:37:34;;;;;;;;;;;;;;;16.20;50.56;100070.06;4995296;28;1281;-48
2023/03/26 05:40:06;;;;;;;;;;;;;;;16.17;51.09;100066.00;4995304;28;1914;-47
2023/03/26 05:42:32;;;;;;;;;;;;;;;15.94;49.76;100056.56;4996538;28;1040;-47
2023/03/26 05:45:17;;;;;;;;;;;;;;;16.76;51.01;100061.25;4995926;28;1343;-47
2023/03/26 05:47:43;;;;;;;;;;;;;;;16.18;50.47;100050.34;5027895;28;1156;-44
2023/03/26 05:50:09;;;;;;;;;;;;;;;17.52;50.32;100043.28;5011755;28;1116;-45
2023/03/26 05:52:38;;;;;;;;;;;;;;;16.69;51.53;100041.59;4995315;28;1166;-47
2023/03/26 05:55:22;;;;;;;;;;;;;;;16.29;50.27;100056.56;4995960;28;1013;-41
2023/03/26 05:58:24;;;;;;;;;;;;;;;16.04;48.89;100051.00;4936040;29;1914;-45
2023/03/26 06:01:24;;;;;;;;;;;;;;;16.82;50.48;100052.97;4967839;28;1117;-48
2023/03/26 06:04:10;;;;;;;;;;;;;;;16.11;50.10;100060.84;4996129;28;1076;-46
2023/03/26 06:06:40;;;;;;;;;;;;;;;16.87;50.65;100055.66;4994963;28;1097;-42
2023/03/26 06:09:06;;;;;;;;;;;;;;;16.63;51.38;100070.19;5011059;28;1129;-43
2023/03/26 06:11:31;;;;;;;;;;;;;;;16.14;50.30;100065.72;4996503;28;1156;-45
2023/03/26 06:13:57;;;;;;;;;;;;;;;15.97;49.12;100060.69;4995222;28;1256;-47
2023/03/26 06:16:22;;;;;;;;;;;;;;;16.97;50.65;100068.47;5028228;28;1579;-43
2023/03/26 06:18:55;;;;;;;;;;;;;;;16.52;50.38;100071.41;4994453;28;1902;-45
2023/03/26 06:21:46;;;;;;;;;;;;;;;16.03;49.47;100063.09;4996102;28;1201;-41
2023/03/26 06:24:18;;;;;;;;;;;;;;;16.80;50.25;100060.69;4994919;28;1151;-48
2023/03/26 06:27:02;;;;;;;;;;;;;;;16.16;49.75;100066.25;4996127;28;1151;-45
2023/03/26 06:29:50;;;;;;;;;;;;;;;17.61;49.72;100063.47;4994872;28;1237;-46
2023/03/26 06:32:33;;;;;;;;;;;;;;;16.43;50.58;100071.22;4994674;28;1232;-45
2023/03/26 06:35:05;;;;;;;;;;;;;;;16.11;49.40;100077.28;4998668;28;1158;-44
2023/03/26 06:37:30;;;;;;;;;;;;;;;17.27;50.30;100079.06;5031252;28;1917;-43
2023/03/26 06:39:59;;;;;;;;;;;;;;;16.40;50.76;100083.59;4999223;28;1914;-42
2023/03/26 06:42:44;;;;;;;;;;;;;;;16.05;49.54;100077.31;4999109;28;1208;-41
2023/03/26 06:45:31;;;;;;;;;;;;;;;16.90;50.33;100082.53;4978861;28;1062;-46
2023/03/26 06:48:15;;;;;;;;;;;;;;;16.32;50.49;100091.63;4999649;28;898;-46
2023/03/26 06:51:07;;;;;;;;;;;;;;;17.41;49.95;100092.88;4998305;28;1265;-44
2023/03/26 06:53:53;;;;;;;;;;;;;;;17.09;50.34;100090.84;4999998;28;1200;-44
2023/03/26 06:56:38;;;;;;;;;;;;;;;16.39;49.83;100084.69;4995842;28;1018;-44
2023/03/26 06:59:26;;;;;;;;;;;;;;;16.22;48.60;100093.34;4998085;28;1906;-41
2023/03/26 07:02:10;;;;;;;;;;;;;;;16.86;50.26;100086.97;4999313;28;1121;-45
2023/03/26 07:04:54;;;;;;;;;;;;;;;16.42;49.74;100100.59;4999403;28;1144;-44
2023/03/26 07:07:58;;;;;;;;;;;;;;;16.96;50.10;100094.28;4958538;29;1317;-45
2023/03/26 07:10:42;;;;;;;;;;;;;;;16.51;50.13;100102.69;4958187;29;1256;-43
2023/03/26 07:13:11;;;;;;;;;;;;;;;16.30;49.11;100108.38;4983246;28;1064;-45
2023/03/26 07:16:05;;;;;;;;;;;;;;;16.47;49.67;100107.16;4987197;28;1156;-44
2023/03/26 07:19:05;;;;;;;;;;;;;;;16.56;49.69;100102.66;4997605;28;1914;-46
2023/03/26 07:21:34;;;;;;;;;;;;;;;16.16;48.85;100101.91;4997817;28;1290;-45
2023/03/26 07:24:12;;;;;;;;;;;;;;;16.90;49.80;100080.63;4997718;28;1178;-46
2023/03/26 07:27:22;;;;;;;;;;;;;;;16.23;49.58;100089.50;4998393;28;1360;-42
2023/03/26 07:29:48;;;;;;;;;;;;;;;17.16;49.63;100076.75;4997700;28;1226;-48
2023/03/26 07:32:43;;;;;;;;;;;;;;;16.42;50.05;100072.31;4997448;28;1409;-46
2023/03/26 07:35:43;;;;;;;;;;;;;;;16.39;49.67;100068.22;4976470;28;1342;-42
2023/03/26 07:38:45;;;;;;;;;;;;;;;16.70;49.96;100059.66;4978972;28;1915;-43
2023/03/26 07:41:39;;;;;;;;;;;;;;;16.25;49.04;100067.28;4996469;28;1388;-43
2023/03/26 07:44:29;;;;;;;;;;;;;;;16.87;49.81;100058.38;5024157;28;1124;-46
2023/03/26 07:47:24;;;;;;;;;;;;;;;16.25;49.22;100050.81;4986687;28;1381;-43
2023/03/26 07:50:17;;;;;;;;;;;;;;;16.14;47.91;100049.28;4997636;28;1198;-44
2023/03/26 07:53:03;;;;;;;;;;;;;;;17.02;49.27;100047.25;5025748;28;2418;-43
2023/03/26 07:55:37;;;;;;;;;;;;;;;16.36;49.30;100040.56;4990851;28;978;-43
2023/03/26 07:58:49;;;;;;;;;;;;;;;16.20;48.55;100050.84;4976879;28;1972;-42
2023/03/26 08:01:42;;;;;;;;;;;;;;;16.43;49.74;100052.00;4963367;28;1173;-45
2023/03/26 08:04:26;;;;;;;;;;;;;;;16.10;48.90;100045.47;5026236;28;1318;-45
2023/03/26 08:07:33;;;;;;;;;;;;;;;17.32;48.75;100058.13;4988985;28;1274;-45
2023/03/26 08:10:17;;;;;;;;;;;;;;;16.25;49.72;100056.31;4997081;28;1125;-45
2023/03/26 08:13:17;;;;;;;;;;;;;;;17.68;48.80;100050.16;4988680;28;1053;-46
2023/03/26 08:16:12;;;;;;;;;;;;;;;16.77;49.84;100051.94;4998044;28;1156;-44
2023/03/26 08:18:53;;;;;;;;;;;;;;;16.33;49.13;100050.19;4997358;28;1898;-47
2023/03/26 08:21:24;;;;;;;;;;;;;;;16.89;49.59;100059.75;4997935;28;942;-46
2023/03/26 08:23:50;;;;;;;;;;;;;;;16.58;49.35;100060.09;4998009;28;1203;-46
2023/03/26 08:26:34;;;;;;;;;;;;;;;16.38;48.35;100060.28;5029490;28;1044;-48
2023/03/26 08:29:03;;;;;;;;;;;;;;;16.76;49.53;100066.75;4997586;28;1040;-49
2023/03/26 08:31:32;;;;;;;;;;;;;;;16.62;49.42;100065.81;4997228;28;1226;-48
2023/03/26 08:33:58;;;;;;;;;;;;;;;16.25;48.88;100072.75;4997991;28;1029;-46
2023/03/26 08:36:23;;;;;;;;;;;;;;;16.18;47.81;100058.56;4998017;28;1107;-42
2023/03/26 08:38:49;;;;;;;;;;;;;;;16.56;48.63;100064.22;4997538;28;1895;-46
2023/03/26 08:41:18;;;;;;;;;;;;;;;16.62;49.45;100054.84;4998101;28;1254;-47
2023/03/26 08:43:46;;;;;;;;;;;;;;;16.39;49.39;100062.75;4996908;28;1139;-46
2023/03/26 08:46:45;;;;;;;;;;;;;;;17.90;48.04;100057.78;4997020;28;1187;-44
2023/03/26 08:49:14;;;;;;;;;;;;;;;16.69;49.33;100060.81;4996238;28;1181;-46
2023/03/26 08:52:13;;;;;;;;;;;;;;;16.34;48.69;100064.72;4997413;28;1450;-44
2023/03/26 08:54:58;;;;;;;;;;;;;;;16.17;47.92;100070.63;5028595;28;1171;-44
2023/03/26 08:57:24;;;;;;;;;;;;;;;16.89;49.02;100058.97;5016018;28;1301;-44
2023/03/26 08:59:58;;;;;;;;;;;;;;;16.24;48.86;100066.47;4982206;28;1898;-45
2023/03/26 09:02:30;;;;;;;;;;;;;;;17.57;48.78;100062.44;4997273;28;1052;-48
2023/03/26 09:05:29;;;;;;;;;;;;;;;17.05;49.61;100056.81;4996926;28;1148;-47
2023/03/26 09:07:54;;;;;;;;;;;;;;;16.47;48.93;100068.72;4960956;28;1233;-44
2023/03/26 09:10:39;;;;;;;;;;;;;;;16.36;48.60;100079.78;4997253;28;1148;-45
2023/03/26 09:13:04;;;;;;;;;;;;;;;17.00;49.58;100071.44;4996896;28;1164;-46
2023/03/26 09:15:34;;;;;;;;;;;;;;;16.46;49.39;100078.06;4996846;28;1139;-49
2023/03/26 09:18:09;;;;;;;;;;;;;;;16.24;48.46;100076.59;4996691;28;1119;-46
2023/03/26 09:20:37;;;;;;;;;;;;;;;16.15;47.56;100078.34;5000071;28;1975;-47
2023/03/26 09:23:12;;;;;;;;;;;;;;;16.30;47.99;100089.19;4994152;28;998;-47
2023/03/26 09:25:47;;;;;;;;;;;;;;;16.34;48.87;100086.66;4996848;28;1033;-44
2023/03/26 09:28:19;;;;;;;;;;;;;;;17.48;48.62;100097.22;4996324;28;1060;-47
2023/03/26 09:30:48;;;;;;;;;;;;;;;17.83;48.71;100092.31;4995583;28;1108;-48
2023/03/26 09:33:32;;;;;;;;;;;;;;;16.73;50.16;100102.19;4994754;28;1060;-44
2023/03/26 09:36:01;;;;;;;;;;;;;;;16.62;48.35;100106.16;4995972;28;1080;-46
2023/03/26 09:38:35;;;;;;;;;;;;;;;16.62;49.46;100115.22;4996377;28;1971;-44
2023/03/26 09:41:15;;;;;;;;;;;;;;;16.72;49.48;100109.63;5027900;28;1113;-45
2023/03/26 09:43:47;;;;;;;;;;;;;;;16.33;48.53;100110.56;4984621;28;997;-47
2023/03/26 09:46:28;;;;;;;;;;;;;;;16.16;48.05;100118.38;4995546;28;1002;-50
2023/03/26 09:49:05;;;;;;;;;;;;;;;16.12;47.03;100115.41;4996502;28;1227;-46
2023/03/26 09:51:34;;;;;;;;;;;;;;;16.01;46.80;100128.34;4996040;28;1005;-44
2023/03/26 09:54:04;;;;;;;;;;;;;;;16.91;48.38;100114.38;5028131;28;1013;-46
2023/03/26 09:56:48;;;;;;;;;;;;;;;16.56;49.05;100121.88;4981715;28;1127;-46
2023/03/26 09:59:26;;;;;;;;;;;;;;;16.47;49.39;100118.13;4995887;28;1981;-45
2023/03/26 10:01:52;;;;;;;;;;;;;;;17.17;49.04;100106.69;5027961;28;1025;-41
2023/03/26 10:04:37;;;;;;;;;;;;;;;16.56;49.01;100119.13;4996256;28;1131;-44
2023/03/26 10:07:02;;;;;;;;;;;;;;;16.20;48.54;100103.81;4995790;28;1032;-49
2023/03/26 10:09:40;;;;;;;;;;;;;;;16.52;48.78;100102.44;4999109;28;902;-44
2023/03/26 10:12:05;;;;;;;;;;;;;;;16.66;49.46;100107.22;5031574;28;1001;-49
2023/03/26 10:14:31;;;;;;;;;;;;;;;16.25;48.85;100111.97;4999679;28;1029;-42
2023/03/26 10:17:18;;;;;;;;;;;;;;;16.86;49.16;100125.41;4998473;28;1269;-46
2023/03/26 10:19:49;;;;;;;;;;;;;;;16.42;49.05;100122.56;4999738;28;1902;-42
2023/03/26 10:22:19;;;;;;;;;;;;;;;16.24;48.24;100132.31;4996945;28;1123;-43
2023/03/26 10:24:44;;;;;;;;;;;;;;;16.98;48.81;100136.81;5000190;28;1188;-46
2023/03/26 10:27:20;;;;;;;;;;;;;;;16.42;48.79;100128.03;4999561;28;1056;-48
2023/03/26 10:29:49;;;;;;;;;;;;;;;16.14;48.29;100121.41;5000031;28;1141;-46
2023/03/26 10:32:33;;;;;;;;;;;;;;;16.22;47.99;100125.47;5000404;28;1009;-45
2023/03/26 10:35:10;;;;;;;;;;;;;;;16.47;49.00;100121.69;4982277;28;1124;-43
2023/03/26 10:37:46;;;;;;;;;;;;;;;17.79;48.01;100125.06;5030494;28;985;-45
2023/03/26 10:40:22;;;;;;;;;;;;;;;18.04;48.24;100143.16;4999629;28;1991;-45
2023/03/26 10:43:00;;;;;;;;;;;;;;;16.89;49.72;100133.09;4998835;28;1079;-40
2023/03/26 10:45:44;;;;;;;;;;;;;;;16.65;48.69;100152.25;4999061;28;1095;-42
2023/03/26 10:48:09;;;;;;;;;;;;;;;16.48;47.82;100114.25;4999348;28;1188;-43
2023/03/26 10:50:44;;;;;;;;;;;;;;;17.36;49.13;100119.63;4998844;28;1083;-45
2023/03/26 10:53:09;;;;;;;;;;;;;;;16.60;49.09;100128.41;4999205;28;1037;-43
2023/03/26 10:55:44;;;;;;;;;;;;;;;16.45;48.27;100128.56;4999251;28;1041;-43
2023/03/26 10:58:23;;;;;;;;;;;;;;;16.29;47.66;100112.22;5022613;28;1155;-45
2023/03/26 11:00:59;;;;;;;;;;;;;;;16.34;47.66;100120.44;4981189;28;1145;-45
2023/03/26 11:03:27;;;;;;;;;;;;;;;16.54;48.81;100129.59;4999172;28;1073;-41
2023/03/26 11:06:05;;;;;;;;;;;;;;;16.30;48.00;100137.72;4997093;28;1276;-47
2023/03/26 11:09:11;;;;;;;;;;;;;;;16.11;47.38;100129.41;4997891;28;1168;-43
2023/03/26 11:11:54;;;;;;;;;;;;;;;16.80;48.78;100143.03;4938529;29;1196;-42
2023/03/26 11:14:23;;;;;;;;;;;;;;;16.34;48.38;100147.88;4938604;29;1080;-41
2023/03/26 11:16:54;;;;;;;;;;;;;;;17.39;48.35;100150.09;4974796;28;1184;-43
2023/03/26 11:19:31;;;;;;;;;;;;;;;16.62;48.91;100141.84;4997208;28;1994;-41
2023/03/26 11:22:07;;;;;;;;;;;;;;;16.27;48.29;100141.06;5028933;28;1183;-42
2023/03/26 11:24:45;;;;;;;;;;;;;;;16.06;47.66;100142.03;4985863;28;1176;-40
2023/03/26 11:27:10;;;;;;;;;;;;;;;17.42;47.92;100130.25;4997001;28;1327;-42
2023/03/26 11:29:45;;;;;;;;;;;;;;;16.54;48.74;100132.31;4998586;28;1113;-41
2023/03/26 11:32:11;;;;;;;;;;;;;;;16.28;48.18;100127.06;4998438;28;1040;-44
2023/03/26 11:34:41;;;;;;;;;;;;;;;16.15;47.60;100122.22;4997950;28;834;-42
2023/03/26 11:37:11;;;;;;;;;;;;;;;15.96;47.21;100125.66;5029958;28;1020;-42
2023/03/26 11:39:50;;;;;;;;;;;;;;;15.99;47.23;100122.34;5029261;28;1978;-41
2023/03/26 11:42:16;;;;;;;;;;;;;;;16.36;48.32;100123.69;5016688;28;1001;-45
2023/03/26 11:44:43;;;;;;;;;;;;;;;16.90;48.62;100126.47;4997088;28;1228;-41
2023/03/26 11:47:09;;;;;;;;;;;;;;;18.08;47.61;100127.69;4998103;28;859;-46
2023/03/26 11:49:35;;;;;;;;;;;;;;;16.80;49.35;100129.31;5029093;28;1076;-41
2023/03/26 11:52:01;;;;;;;;;;;;;;;16.47;48.83;100120.88;4998406;28;1176;-41
2023/03/26 11:54:27;;;;;;;;;;;;;;;16.32;48.07;100111.66;4998433;28;1013;-44
2023/03/26 11:56:56;;;;;;;;;;;;;;;16.82;49.06;100116.94;4997621;28;1111;-47
2023/03/26 11:59:28;;;;;;;;;;;;;;;16.42;48.62;100108.84;4997387;28;1918;-44
2023/03/26 12:01:57;;;;;;;;;;;;;;;16.83;48.91;100104.84;4997883;28;1025;-44
2023/03/26 12:04:36;;;;;;;;;;;;;;;16.67;48.79;100104.19;4997948;28;1038;-47
2023/03/26 12:07:19;;;;;;;;;;;;;;;16.24;48.65;100102.13;4997658;28;1188;-45
2023/03/26 12:09:58;;;;;;;;;;;;;;;16.20;47.35;100100.22;4997439;28;1163;-41
2023/03/26 12:12:30;;;;;;;;;;;;;;;17.14;48.09;100111.94;4997673;28;1048;-43
2023/03/26 12:14:58;;;;;;;;;;;;;;;16.40;48.87;100108.28;5012609;28;1234;-43
2023/03/26 12:17:29;;;;;;;;;;;;;;;16.22;48.03;100111.75;4996501;28;1105;-41
2023/03/26 12:19:54;;;;;;;;;;;;;;;16.12;47.13;100106.31;4996731;28;1914;-39
2023/03/26 12:22:30;;;;;;;;;;;;;;;16.90;48.22;100101.75;5022649;28;1083;-47
2023/03/26 12:25:05;;;;;;;;;;;;;;;16.39;48.63;100100.34;4991510;28;1077;-44
2023/03/26 12:27:31;;;;;;;;;;;;;;;18.09;47.47;100112.00;4997641;28;1040;-41
2023/03/26 12:29:58;;;;;;;;;;;;;;;17.12;48.95;100111.41;4997446;28;1029;-44
2023/03/26 12:32:24;;;;;;;;;;;;;;;16.70;48.75;100111.03;5028439;28;1101;-44
2023/03/26 12:34:50;;;;;;;;;;;;;;;16.51;47.81;100108.19;5027894;28;1366;-41
2023/03/26 12:37:36;;;;;;;;;;;;;;;16.28;47.52;100107.03;4997474;28;1147;-46
2023/03/26 12:40:20;;;;;;;;;;;;;;;16.33;47.55;100099.56;4996579;28;1914;-41
2023/03/26 12:42:56;;;;;;;;;;;;;;;16.63;48.75;100100.38;4996820;28;1009;-45
2023/03/26 12:45:22;;;;;;;;;;;;;;;16.31;48.19;100093.53;4997024;28;1157;-39
2023/03/26 12:47:48;;;;;;;;;;;;;;;16.81;48.44;100093.31;4992504;28;1020;-45
2023/03/26 12:50:14;;;;;;;;;;;;;;;16.59;48.58;100099.31;4996704;28;1076;-46
2023/03/26 12:53:15;;;;;;;;;;;;;;;16.32;48.20;100075.97;4996648;28;1140;-44
2023/03/26 12:55:41;;;;;;;;;;;;;;;16.70;48.17;100073.41;4994345;28;1444;-47
2023/03/26 12:58:25;;;;;;;;;;;;;;;16.63;48.50;100061.94;4996416;28;1149;-45
2023/03/26 13:01:01;;;;;;;;;;;;;;;17.53;48.04;100069.63;4996873;28;1029;-45
2023/03/26 13:03:30;;;;;;;;;;;;;;;17.72;48.26;100069.66;4995504;28;1133;-40
2023/03/26 13:05:59;;;;;;;;;;;;;;;16.89;48.96;100070.75;4995807;28;1213;-45
2023/03/26 13:08:24;;;;;;;;;;;;;;;16.68;48.20;100074.81;4996964;28;1021;-40
2023/03/26 13:10:56;;;;;;;;;;;;;;;16.50;47.24;100071.69;4996129;28;1109;-42
2023/03/26 13:13:37;;;;;;;;;;;;;;;16.36;46.93;100057.84;4996488;28;1072;-41
2023/03/26 13:16:22;;;;;;;;;;;;;;;16.95;48.15;100046.78;4979994;28;1315;-45
2023/03/26 13:19:06;;;;;;;;;;;;;;;17.79;48.21;100054.41;4992338;28;1961;-45
2023/03/26 13:21:51;;;;;;;;;;;;;;;18.73;47.24;100059.13;4991178;28;1389;-44
2023/03/26 13:24:19;;;;;;;;;;;;;;;17.32;49.21;100060.88;4985361;28;1006;-43
2023/03/26 13:26:52;;;;;;;;;;;;;;;16.93;48.54;100060.81;4995085;28;1213;-45
2023/03/26 13:29:36;;;;;;;;;;;;;;;16.75;47.72;100053.31;4996508;28;1065;-46